Seminole, Florida
Current Conditions -  °F | °C
As of 7:53 AM on Friday 24 Oct 2014 (Local Time) from KPIE Reporting Station
Clear Clear  
Wind Chill: 65°   Ceiling: Unl
Heat Index: 65°   Visibility: 10mi
Dew Point: 58°   Wind: 10mph
Humidity: 78%   Direction: 40°NE
Pressure: 29.98"   Gusts: NA
Location:  27.84°N, 82.8°W
Report Text: KPIE 241153Z 04009KT 10SM CLR 18/14 A2998 RMK AO2 SLP152 T01830144 10200 20183 53013
Loading
Personal Weather Stations






























Interactive Weather Map
Tropical Storm Tracking
New forecast layout! Learn more

10-Day Weather Forecast

Advertisements
Track Severe Weather on mobile